sensor_id;sensor_type;location;lat;lon;timestamp;temperature;humidity
14670;DHT22;7423;48.722;9.350;2024-02-23T00:02:20;11.10;99.90
14670;DHT22;7423;48.722;9.350;2024-02-23T00:04:47;11.10;99.90
14670;DHT22;7423;48.722;9.350;2024-02-23T00:07:14;11.20;99.90
14670;DHT22;7423;48.722;9.350;2024-02-23T00:09:41;11.30;99.90
14670;DHT22;7423;48.722;9.350;2024-02-23T00:12:08;11.30;99.90
14670;DHT22;7423;48.722;9.350;2024-02-23T00:14:35;11.30;99.90
14670;DHT22;7423;48.722;9.350;2024-02-23T00:17:03;11.30;99.90
14670;DHT22;7423;48.722;9.350;2024-02-23T00:19:30;11.30;99.90
14670;DHT22;7423;48.722;9.350;2024-02-23T00:21:58;11.30;99.90
14670;DHT22;7423;48.722;9.350;2024-02-23T00:24:26;11.20;99.90
14670;DHT22;7423;48.722;9.350;2024-02-23T00:26:53;11.40;99.90
14670;DHT22;7423;48.722;9.350;2024-02-23T00:29:20;11.30;99.90
14670;DHT22;7423;48.722;9.350;2024-02-23T00:31:49;11.30;99.90
14670;DHT22;7423;48.722;9.350;2024-02-23T00:34:16;11.30;99.90
14670;DHT22;7423;48.722;9.350;2024-02-23T00:36:44;11.30;99.90
14670;DHT22;7423;48.722;9.350;2024-02-23T00:39:11;11.30;99.90
14670;DHT22;7423;48.722;9.350;2024-02-23T00:41:38;11.30;99.90
14670;DHT22;7423;48.722;9.350;2024-02-23T00:44:05;11.30;99.90
14670;DHT22;7423;48.722;9.350;2024-02-23T00:46:33;11.30;99.90
14670;DHT22;7423;48.722;9.350;2024-02-23T00:49:01;11.40;99.90
14670;DHT22;7423;48.722;9.350;2024-02-23T00:51:29;11.30;99.90
14670;DHT22;7423;48.722;9.350;2024-02-23T00:53:56;11.20;99.90
14670;DHT22;7423;48.722;9.350;2024-02-23T00:56:23;11.30;99.90
14670;DHT22;7423;48.722;9.350;2024-02-23T00:59:01;11.30;99.90
14670;DHT22;7423;48.722;9.350;2024-02-23T01:01:28;11.40;99.90
14670;DHT22;7423;48.722;9.350;2024-02-23T01:03:55;11.30;99.90
14670;DHT22;7423;48.722;9.350;2024-02-23T01:06:23;11.30;99.90
14670;DHT22;7423;48.722;9.350;2024-02-23T01:08:51;11.30;99.90
14670;DHT22;7423;48.722;9.350;2024-02-23T01:11:18;11.20;99.90
14670;DHT22;7423;48.722;9.350;2024-02-23T01:13:45;11.20;99.90
14670;DHT22;7423;48.722;9.350;2024-02-23T01:16:12;11.10;99.90
14670;DHT22;7423;48.722;9.350;2024-02-23T01:18:39;12.30;99.90
14670;DHT22;7423;48.722;9.350;2024-02-23T01:21:06;11.20;99.90
14670;DHT22;7423;48.722;9.350;2024-02-23T01:23:33;11.10;99.90
14670;DHT22;7423;48.722;9.350;2024-02-23T01:26:00;11.10;99.90
14670;DHT22;7423;48.722;9.350;2024-02-23T01:28:27;11.20;99.90
14670;DHT22;7423;48.722;9.350;2024-02-23T01:30:54;11.10;99.90
14670;DHT22;7423;48.722;9.350;2024-02-23T01:33:21;11.30;99.90
14670;DHT22;7423;48.722;9.350;2024-02-23T01:35:49;11.30;99.90
14670;DHT22;7423;48.722;9.350;2024-02-23T01:38:17;11.30;99.90
14670;DHT22;7423;48.722;9.350;2024-02-23T01:40:47;11.30;99.90
14670;DHT22;7423;48.722;9.350;2024-02-23T01:43:14;11.20;99.90
14670;DHT22;7423;48.722;9.350;2024-02-23T01:45:41;13.60;99.90
14670;DHT22;7423;48.722;9.350;2024-02-23T01:48:08;11.20;99.90
14670;DHT22;7423;48.722;9.350;2024-02-23T01:50:36;11.20;99.90
14670;DHT22;7423;48.722;9.350;2024-02-23T01:53:04;11.10;99.90
14670;DHT22;7423;48.722;9.350;2024-02-23T01:55:31;11.00;99.90
14670;DHT22;7423;48.722;9.350;2024-02-23T01:58:04;10.90;99.90
14670;DHT22;7423;48.722;9.350;2024-02-23T02:00:35;10.80;99.90
14670;DHT22;7423;48.722;9.350;2024-02-23T02:03:03;10.70;99.90
14670;DHT22;7423;48.722;9.350;2024-02-23T02:05:36;10.70;99.90
14670;DHT22;7423;48.722;9.350;2024-02-23T02:08:04;10.70;99.90
14670;DHT22;7423;48.722;9.350;2024-02-23T02:10:32;10.70;99.90
14670;DHT22;7423;48.722;9.350;2024-02-23T02:13:05;10.50;99.90
14670;DHT22;7423;48.722;9.350;2024-02-23T02:15:32;10.40;99.90
14670;DHT22;7423;48.722;9.350;2024-02-23T02:17:59;10.30;99.90
14670;DHT22;7423;48.722;9.350;2024-02-23T02:20:28;10.20;99.90
14670;DHT22;7423;48.722;9.350;2024-02-23T02:22:59;10.30;99.90
14670;DHT22;7423;48.722;9.350;2024-02-23T02:25:26;10.30;99.90
14670;DHT22;7423;48.722;9.350;2024-02-23T02:27:53;10.20;99.90
14670;DHT22;7423;48.722;9.350;2024-02-23T02:30:20;10.20;99.90
14670;DHT22;7423;48.722;9.350;2024-02-23T02:32:47;10.20;99.90
14670;DHT22;7423;48.722;9.350;2024-02-23T02:35:14;10.30;99.90
14670;DHT22;7423;48.722;9.350;2024-02-23T02:37:41;10.30;99.90
14670;DHT22;7423;48.722;9.350;2024-02-23T02:40:08;10.20;99.90
14670;DHT22;7423;48.722;9.350;2024-02-23T02:42:35;10.20;99.90
14670;DHT22;7423;48.722;9.350;2024-02-23T02:45:04;10.30;99.90
14670;DHT22;7423;48.722;9.350;2024-02-23T02:47:31;10.30;99.90
14670;DHT22;7423;48.722;9.350;2024-02-23T02:49:58;10.20;99.90
14670;DHT22;7423;48.722;9.350;2024-02-23T02:52:25;10.20;99.90
14670;DHT22;7423;48.722;9.350;2024-02-23T02:54:52;10.20;99.90
14670;DHT22;7423;48.722;9.350;2024-02-23T02:57:19;10.20;99.90
14670;DHT22;7423;48.722;9.350;2024-02-23T02:59:46;10.10;99.90
14670;DHT22;7423;48.722;9.350;2024-02-23T03:02:13;10.00;99.90
14670;DHT22;7423;48.722;9.350;2024-02-23T03:04:47;9.90;99.90
14670;DHT22;7423;48.722;9.350;2024-02-23T03:07:15;9.90;99.90
14670;DHT22;7423;48.722;9.350;2024-02-23T03:09:43;10.00;99.90
14670;DHT22;7423;48.722;9.350;2024-02-23T03:12:10;10.00;99.90
14670;DHT22;7423;48.722;9.350;2024-02-23T03:14:37;9.90;99.90
14670;DHT22;7423;48.722;9.350;2024-02-23T03:17:07;9.90;99.90
14670;DHT22;7423;48.722;9.350;2024-02-23T03:19:36;9.90;99.90
14670;DHT22;7423;48.722;9.350;2024-02-23T03:22:04;10.00;99.90
14670;DHT22;7423;48.722;9.350;2024-02-23T03:24:34;10.10;99.90
14670;DHT22;7423;48.722;9.350;2024-02-23T03:27:02;10.10;99.90
14670;DHT22;7423;48.722;9.350;2024-02-23T03:29:29;10.20;99.90
14670;DHT22;7423;48.722;9.350;2024-02-23T03:31:56;10.20;99.90
14670;DHT22;7423;48.722;9.350;2024-02-23T03:34:24;10.20;99.90
14670;DHT22;7423;48.722;9.350;2024-02-23T03:36:51;10.00;99.90
14670;DHT22;7423;48.722;9.350;2024-02-23T03:39:18;10.10;99.90
14670;DHT22;7423;48.722;9.350;2024-02-23T03:41:45;10.10;99.90
14670;DHT22;7423;48.722;9.350;2024-02-23T03:44:12;10.10;99.90
14670;DHT22;7423;48.722;9.350;2024-02-23T03:46:39;10.10;99.90
14670;DHT22;7423;48.722;9.350;2024-02-23T03:49:06;10.10;99.90
14670;DHT22;7423;48.722;9.350;2024-02-23T03:51:33;10.10;99.90
14670;DHT22;7423;48.722;9.350;2024-02-23T03:54:01;10.20;99.90
14670;DHT22;7423;48.722;9.350;2024-02-23T03:56:28;10.20;99.90
14670;DHT22;7423;48.722;9.350;2024-02-23T03:58:55;10.20;99.90
14670;DHT22;7423;48.722;9.350;2024-02-23T04:01:22;10.30;99.90
14670;DHT22;7423;48.722;9.350;2024-02-23T04:03:49;10.30;99.90
14670;DHT22;7423;48.722;9.350;2024-02-23T04:06:16;10.20;99.90
14670;DHT22;7423;48.722;9.350;2024-02-23T04:08:44;10.10;99.90
14670;DHT22;7423;48.722;9.350;2024-02-23T04:11:14;10.10;99.90
14670;DHT22;7423;48.722;9.350;2024-02-23T04:13:41;10.10;99.90
14670;DHT22;7423;48.722;9.350;2024-02-23T04:16:08;10.20;99.90
14670;DHT22;7423;48.722;9.350;2024-02-23T04:18:35;10.20;99.90
14670;DHT22;7423;48.722;9.350;2024-02-23T04:21:02;10.30;99.90
14670;DHT22;7423;48.722;9.350;2024-02-23T04:23:29;10.30;99.90
14670;DHT22;7423;48.722;9.350;2024-02-23T04:25:57;10.20;99.90
14670;DHT22;7423;48.722;9.350;2024-02-23T04:28:25;10.20;99.90
14670;DHT22;7423;48.722;9.350;2024-02-23T04:30:54;10.20;99.90
14670;DHT22;7423;48.722;9.350;2024-02-23T04:33:21;10.30;99.90
14670;DHT22;7423;48.722;9.350;2024-02-23T04:35:48;10.30;99.90
14670;DHT22;7423;48.722;9.350;2024-02-23T04:38:15;10.30;99.90
14670;DHT22;7423;48.722;9.350;2024-02-23T04:40:42;10.30;99.90
14670;DHT22;7423;48.722;9.350;2024-02-23T04:43:09;10.20;99.90
14670;DHT22;7423;48.722;9.350;2024-02-23T04:45:36;10.20;99.90
14670;DHT22;7423;48.722;9.350;2024-02-23T04:48:03;10.10;99.90
14670;DHT22;7423;48.722;9.350;2024-02-23T04:50:30;10.10;99.90
14670;DHT22;7423;48.722;9.350;2024-02-23T04:52:57;10.10;99.90
14670;DHT22;7423;48.722;9.350;2024-02-23T04:55:24;10.10;99.90
14670;DHT22;7423;48.722;9.350;2024-02-23T04:57:51;10.10;99.90
14670;DHT22;7423;48.722;9.350;2024-02-23T05:00:18;10.10;99.90
14670;DHT22;7423;48.722;9.350;2024-02-23T05:02:45;10.10;99.90
14670;DHT22;7423;48.722;9.350;2024-02-23T05:05:13;10.10;99.90
14670;DHT22;7423;48.722;9.350;2024-02-23T05:07:40;10.10;99.90
14670;DHT22;7423;48.722;9.350;2024-02-23T05:10:07;10.00;99.90
14670;DHT22;7423;48.722;9.350;2024-02-23T05:12:34;10.00;99.90
14670;DHT22;7423;48.722;9.350;2024-02-23T05:15:01;10.10;99.90
14670;DHT22;7423;48.722;9.350;2024-02-23T05:17:29;10.00;99.90
14670;DHT22;7423;48.722;9.350;2024-02-23T05:19:56;10.00;99.90
14670;DHT22;7423;48.722;9.350;2024-02-23T05:22:23;10.00;99.90
14670;DHT22;7423;48.722;9.350;2024-02-23T05:24:50;10.00;99.90
14670;DHT22;7423;48.722;9.350;2024-02-23T05:27:17;10.00;99.90
14670;DHT22;7423;48.722;9.350;2024-02-23T05:29:44;10.00;99.90
14670;DHT22;7423;48.722;9.350;2024-02-23T05:32:11;9.90;99.90
14670;DHT22;7423;48.722;9.350;2024-02-23T05:34:38;9.90;99.90
14670;DHT22;7423;48.722;9.350;2024-02-23T05:37:05;9.90;99.90
14670;DHT22;7423;48.722;9.350;2024-02-23T05:39:32;9.90;99.90
14670;DHT22;7423;48.722;9.350;2024-02-23T05:41:59;9.90;99.90
14670;DHT22;7423;48.722;9.350;2024-02-23T05:44:26;9.80;99.90
14670;DHT22;7423;48.722;9.350;2024-02-23T05:46:53;9.80;99.90
14670;DHT22;7423;48.722;9.350;2024-02-23T05:49:20;9.80;99.90
14670;DHT22;7423;48.722;9.350;2024-02-23T05:51:47;9.80;99.90
14670;DHT22;7423;48.722;9.350;2024-02-23T05:54:14;9.70;99.90
14670;DHT22;7423;48.722;9.350;2024-02-23T05:56:41;9.70;99.90
14670;DHT22;7423;48.722;9.350;2024-02-23T05:59:10;9.70;99.90
14670;DHT22;7423;48.722;9.350;2024-02-23T06:01:37;9.70;99.90
14670;DHT22;7423;48.722;9.350;2024-02-23T06:04:04;9.70;99.90
14670;DHT22;7423;48.722;9.350;2024-02-23T06:06:32;9.60;99.90
14670;DHT22;7423;48.722;9.350;2024-02-23T06:08:59;9.60;99.90
14670;DHT22;7423;48.722;9.350;2024-02-23T06:11:27;9.60;99.90
14670;DHT22;7423;48.722;9.350;2024-02-23T06:13:54;9.60;99.90
14670;DHT22;7423;48.722;9.350;2024-02-23T06:16:21;9.60;99.90
14670;DHT22;7423;48.722;9.350;2024-02-23T06:18:48;9.60;99.90
14670;DHT22;7423;48.722;9.350;2024-02-23T06:21:18;9.60;99.90
14670;DHT22;7423;48.722;9.350;2024-02-23T06:23:45;9.60;99.90
14670;DHT22;7423;48.722;9.350;2024-02-23T06:26:13;9.60;99.90
14670;DHT22;7423;48.722;9.350;2024-02-23T06:28:40;9.60;99.90
14670;DHT22;7423;48.722;9.350;2024-02-23T06:31:10;9.50;99.90
14670;DHT22;7423;48.722;9.350;2024-02-23T06:33:37;9.50;99.90
14670;DHT22;7423;48.722;9.350;2024-02-23T06:36:04;9.50;99.90
14670;DHT22;7423;48.722;9.350;2024-02-23T06:38:31;9.50;99.90
14670;DHT22;7423;48.722;9.350;2024-02-23T06:40:59;9.50;99.90
14670;DHT22;7423;48.722;9.350;2024-02-23T06:43:26;9.50;99.90
14670;DHT22;7423;48.722;9.350;2024-02-23T06:45:53;9.50;99.90
14670;DHT22;7423;48.722;9.350;2024-02-23T06:48:20;9.50;99.90
14670;DHT22;7423;48.722;9.350;2024-02-23T06:50:48;9.50;99.90
14670;DHT22;7423;48.722;9.350;2024-02-23T06:53:14;9.50;99.90
14670;DHT22;7423;48.722;9.350;2024-02-23T06:55:41;9.50;99.90
14670;DHT22;7423;48.722;9.350;2024-02-23T06:58:09;9.60;99.90
14670;DHT22;7423;48.722;9.350;2024-02-23T07:00:37;9.60;99.90
14670;DHT22;7423;48.722;9.350;2024-02-23T07:03:05;9.60;99.90
14670;DHT22;7423;48.722;9.350;2024-02-23T07:05:32;9.60;99.90
14670;DHT22;7423;48.722;9.350;2024-02-23T07:07:59;9.50;99.90
14670;DHT22;7423;48.722;9.350;2024-02-23T07:10:26;9.50;99.90
14670;DHT22;7423;48.722;9.350;2024-02-23T07:12:53;9.50;99.90
14670;DHT22;7423;48.722;9.350;2024-02-23T07:15:21;9.50;99.90
14670;DHT22;7423;48.722;9.350;2024-02-23T07:17:48;9.40;99.90
14670;DHT22;7423;48.722;9.350;2024-02-23T07:20:15;9.40;99.90
14670;DHT22;7423;48.722;9.350;2024-02-23T07:22:46;9.40;99.90
14670;DHT22;7423;48.722;9.350;2024-02-23T07:25:20;9.30;99.90
14670;DHT22;7423;48.722;9.350;2024-02-23T07:27:48;9.40;99.90
14670;DHT22;7423;48.722;9.350;2024-02-23T07:30:18;9.40;99.90
14670;DHT22;7423;48.722;9.350;2024-02-23T07:32:45;9.40;99.90
14670;DHT22;7423;48.722;9.350;2024-02-23T07:35:19;9.40;99.90
14670;DHT22;7423;48.722;9.350;2024-02-23T07:37:46;9.40;99.90
14670;DHT22;7423;48.722;9.350;2024-02-23T07:40:13;9.50;99.90
14670;DHT22;7423;48.722;9.350;2024-02-23T07:42:44;9.50;99.90
14670;DHT22;7423;48.722;9.350;2024-02-23T07:45:12;9.50;99.90
14670;DHT22;7423;48.722;9.350;2024-02-23T07:47:39;9.50;99.90
14670;DHT22;7423;48.722;9.350;2024-02-23T07:50:06;9.50;99.90
14670;DHT22;7423;48.722;9.350;2024-02-23T07:52:34;9.50;99.90
14670;DHT22;7423;48.722;9.350;2024-02-23T07:55:02;9.50;99.90
14670;DHT22;7423;48.722;9.350;2024-02-23T07:57:32;9.60;99.90
14670;DHT22;7423;48.722;9.350;2024-02-23T07:59:59;9.60;99.90
14670;DHT22;7423;48.722;9.350;2024-02-23T08:02:26;9.60;99.90
14670;DHT22;7423;48.722;9.350;2024-02-23T08:04:53;9.60;99.90
14670;DHT22;7423;48.722;9.350;2024-02-23T08:07:21;9.70;99.90
14670;DHT22;7423;48.722;9.350;2024-02-23T08:09:49;9.70;99.90
14670;DHT22;7423;48.722;9.350;2024-02-23T08:12:16;9.80;99.90
14670;DHT22;7423;48.722;9.350;2024-02-23T08:14:43;9.80;99.90
14670;DHT22;7423;48.722;9.350;2024-02-23T08:17:12;9.80;99.90
14670;DHT22;7423;48.722;9.350;2024-02-23T08:19:39;9.80;99.90
14670;DHT22;7423;48.722;9.350;2024-02-23T08:22:06;9.80;99.90
14670;DHT22;7423;48.722;9.350;2024-02-23T08:24:33;9.80;99.90
14670;DHT22;7423;48.722;9.350;2024-02-23T08:27:00;9.90;99.90
14670;DHT22;7423;48.722;9.350;2024-02-23T08:29:27;9.90;99.90
14670;DHT22;7423;48.722;9.350;2024-02-23T08:31:54;9.90;99.90
14670;DHT22;7423;48.722;9.350;2024-02-23T08:34:21;9.90;99.90
14670;DHT22;7423;48.722;9.350;2024-02-23T08:36:48;10.10;99.90
14670;DHT22;7423;48.722;9.350;2024-02-23T08:39:15;10.20;99.90
14670;DHT22;7423;48.722;9.350;2024-02-23T08:41:42;10.30;99.90
14670;DHT22;7423;48.722;9.350;2024-02-23T08:44:08;10.30;99.90
14670;DHT22;7423;48.722;9.350;2024-02-23T08:46:35;10.30;99.90
14670;DHT22;7423;48.722;9.350;2024-02-23T08:49:06;10.30;99.90
14670;DHT22;7423;48.722;9.350;2024-02-23T08:51:33;10.20;99.90
14670;DHT22;7423;48.722;9.350;2024-02-23T08:54:00;10.20;99.90
14670;DHT22;7423;48.722;9.350;2024-02-23T08:56:31;10.20;99.90
14670;DHT22;7423;48.722;9.350;2024-02-23T08:58:59;10.10;99.90
14670;DHT22;7423;48.722;9.350;2024-02-23T09:01:26;10.10;99.90
14670;DHT22;7423;48.722;9.350;2024-02-23T09:03:54;10.20;99.90
14670;DHT22;7423;48.722;9.350;2024-02-23T09:06:21;10.20;99.90
14670;DHT22;7423;48.722;9.350;2024-02-23T09:08:48;10.10;99.90
14670;DHT22;7423;48.722;9.350;2024-02-23T09:11:15;10.10;99.90
14670;DHT22;7423;48.722;9.350;2024-02-23T09:13:43;10.00;99.90
14670;DHT22;7423;48.722;9.350;2024-02-23T09:16:10;9.90;99.90
14670;DHT22;7423;48.722;9.350;2024-02-23T09:18:37;9.90;99.90
14670;DHT22;7423;48.722;9.350;2024-02-23T09:21:04;9.90;99.90
14670;DHT22;7423;48.722;9.350;2024-02-23T09:23:31;10.00;99.90
14670;DHT22;7423;48.722;9.350;2024-02-23T09:25:59;10.10;99.90
14670;DHT22;7423;48.722;9.350;2024-02-23T09:28:26;10.20;99.90
14670;DHT22;7423;48.722;9.350;2024-02-23T09:30:56;10.20;99.90
14670;DHT22;7423;48.722;9.350;2024-02-23T09:33:24;10.10;99.90
14670;DHT22;7423;48.722;9.350;2024-02-23T09:35:51;10.10;99.90
14670;DHT22;7423;48.722;9.350;2024-02-23T09:38:18;10.20;99.90
14670;DHT22;7423;48.722;9.350;2024-02-23T09:40:46;10.20;99.90
14670;DHT22;7423;48.722;9.350;2024-02-23T09:43:14;10.20;99.90
14670;DHT22;7423;48.722;9.350;2024-02-23T09:45:44;10.30;99.90
14670;DHT22;7423;48.722;9.350;2024-02-23T09:48:13;10.30;99.90
14670;DHT22;7423;48.722;9.350;2024-02-23T09:50:41;10.40;99.90
14670;DHT22;7423;48.722;9.350;2024-02-23T09:53:11;10.30;99.90
14670;DHT22;7423;48.722;9.350;2024-02-23T09:55:40;10.30;99.90
14670;DHT22;7423;48.722;9.350;2024-02-23T09:58:07;10.50;99.90
14670;DHT22;7423;48.722;9.350;2024-02-23T10:00:38;10.40;99.90
14670;DHT22;7423;48.722;9.350;2024-02-23T10:03:05;10.30;99.90
14670;DHT22;7423;48.722;9.350;2024-02-23T10:05:32;10.20;99.90
14670;DHT22;7423;48.722;9.350;2024-02-23T10:08:04;10.20;99.90
14670;DHT22;7423;48.722;9.350;2024-02-23T10:10:35;10.30;99.90
14670;DHT22;7423;48.722;9.350;2024-02-23T10:13:05;10.30;99.90
14670;DHT22;7423;48.722;9.350;2024-02-23T10:15:32;10.40;99.90
14670;DHT22;7423;48.722;9.350;2024-02-23T10:17:59;10.40;99.90
14670;DHT22;7423;48.722;9.350;2024-02-23T10:20:26;10.40;99.90
14670;DHT22;7423;48.722;9.350;2024-02-23T10:22:54;10.40;99.90
14670;DHT22;7423;48.722;9.350;2024-02-23T10:25:21;10.30;99.90
14670;DHT22;7423;48.722;9.350;2024-02-23T10:27:48;10.30;99.90
14670;DHT22;7423;48.722;9.350;2024-02-23T10:30:15;10.10;99.90
14670;DHT22;7423;48.722;9.350;2024-02-23T10:32:42;10.30;99.90
14670;DHT22;7423;48.722;9.350;2024-02-23T10:35:13;10.30;99.90
14670;DHT22;7423;48.722;9.350;2024-02-23T10:37:48;10.40;99.90
14670;DHT22;7423;48.722;9.350;2024-02-23T10:40:20;10.60;99.90
14670;DHT22;7423;48.722;9.350;2024-02-23T10:42:50;10.70;99.90
14670;DHT22;7423;48.722;9.350;2024-02-23T10:45:19;10.70;99.90
14670;DHT22;7423;48.722;9.350;2024-02-23T10:47:48;10.60;99.90
14670;DHT22;7423;48.722;9.350;2024-02-23T10:50:18;11.50;99.90
14670;DHT22;7423;48.722;9.350;2024-02-23T10:52:46;10.70;99.90
14670;DHT22;7423;48.722;9.350;2024-02-23T10:55:14;10.70;99.90
14670;DHT22;7423;48.722;9.350;2024-02-23T10:57:41;10.70;99.90
14670;DHT22;7423;48.722;9.350;2024-02-23T11:00:09;10.80;99.90
14670;DHT22;7423;48.722;9.350;2024-02-23T11:02:45;10.80;99.90
14670;DHT22;7423;48.722;9.350;2024-02-23T11:05:15;10.60;99.90
14670;DHT22;7423;48.722;9.350;2024-02-23T11:07:43;10.60;99.90
14670;DHT22;7423;48.722;9.350;2024-02-23T11:10:13;10.50;99.90
14670;DHT22;7423;48.722;9.350;2024-02-23T11:12:41;10.40;99.90
14670;DHT22;7423;48.722;9.350;2024-02-23T11:15:29;10.50;99.90
14670;DHT22;7423;48.722;9.350;2024-02-23T11:17:58;10.90;99.90
14670;DHT22;7423;48.722;9.350;2024-02-23T11:20:35;10.50;99.90
14670;DHT22;7423;48.722;9.350;2024-02-23T11:23:13;10.50;99.90
14670;DHT22;7423;48.722;9.350;2024-02-23T11:25:42;10.30;99.90
14670;DHT22;7423;48.722;9.350;2024-02-23T11:28:09;10.30;99.90
14670;DHT22;7423;48.722;9.350;2024-02-23T11:30:45;10.40;99.90
14670;DHT22;7423;48.722;9.350;2024-02-23T11:33:25;10.40;99.90
14670;DHT22;7423;48.722;9.350;2024-02-23T11:35:53;10.50;99.90
14670;DHT22;7423;48.722;9.350;2024-02-23T11:38:21;10.40;99.90
14670;DHT22;7423;48.722;9.350;2024-02-23T11:40:48;10.30;99.90
14670;DHT22;7423;48.722;9.350;2024-02-23T11:43:16;10.40;99.90
14670;DHT22;7423;48.722;9.350;2024-02-23T11:45:43;10.50;99.90
14670;DHT22;7423;48.722;9.350;2024-02-23T11:48:10;10.60;99.90
14670;DHT22;7423;48.722;9.350;2024-02-23T11:50:37;10.70;99.90
14670;DHT22;7423;48.722;9.350;2024-02-23T11:53:04;10.70;99.90
14670;DHT22;7423;48.722;9.350;2024-02-23T11:55:31;10.80;99.90
14670;DHT22;7423;48.722;9.350;2024-02-23T11:57:59;10.80;99.90
14670;DHT22;7423;48.722;9.350;2024-02-23T12:00:34;10.80;99.90
14670;DHT22;7423;48.722;9.350;2024-02-23T12:03:02;10.90;99.90
14670;DHT22;7423;48.722;9.350;2024-02-23T12:05:29;11.00;99.90
14670;DHT22;7423;48.722;9.350;2024-02-23T12:07:57;11.00;99.90
14670;DHT22;7423;48.722;9.350;2024-02-23T12:10:25;11.20;99.90
14670;DHT22;7423;48.722;9.350;2024-02-23T12:12:53;11.20;99.90
14670;DHT22;7423;48.722;9.350;2024-02-23T12:15:20;11.30;99.90
14670;DHT22;7423;48.722;9.350;2024-02-23T12:17:50;11.40;99.90
14670;DHT22;7423;48.722;9.350;2024-02-23T12:20:17;11.40;99.90
14670;DHT22;7423;48.722;9.350;2024-02-23T12:22:45;11.40;99.90
14670;DHT22;7423;48.722;9.350;2024-02-23T12:25:12;11.30;99.90
14670;DHT22;7423;48.722;9.350;2024-02-23T12:27:40;11.20;99.90
14670;DHT22;7423;48.722;9.350;2024-02-23T12:30:15;11.20;99.90
14670;DHT22;7423;48.722;9.350;2024-02-23T12:32:43;11.20;99.90
14670;DHT22;7423;48.722;9.350;2024-02-23T12:35:11;11.10;99.90
14670;DHT22;7423;48.722;9.350;2024-02-23T12:37:39;11.10;99.90
14670;DHT22;7423;48.722;9.350;2024-02-23T12:40:10;11.10;99.90
14670;DHT22;7423;48.722;9.350;2024-02-23T12:42:37;11.10;99.90
14670;DHT22;7423;48.722;9.350;2024-02-23T12:45:04;11.10;99.90
14670;DHT22;7423;48.722;9.350;2024-02-23T12:47:31;11.00;99.90
14670;DHT22;7423;48.722;9.350;2024-02-23T12:49:58;11.00;99.90
14670;DHT22;7423;48.722;9.350;2024-02-23T12:52:25;11.00;99.90
14670;DHT22;7423;48.722;9.350;2024-02-23T12:54:52;11.10;99.90
14670;DHT22;7423;48.722;9.350;2024-02-23T12:57:19;11.20;99.90
14670;DHT22;7423;48.722;9.350;2024-02-23T12:59:46;11.30;99.90
14670;DHT22;7423;48.722;9.350;2024-02-23T13:02:13;11.20;99.90
14670;DHT22;7423;48.722;9.350;2024-02-23T13:04:40;11.20;99.90
14670;DHT22;7423;48.722;9.350;2024-02-23T13:07:07;11.10;99.90
14670;DHT22;7423;48.722;9.350;2024-02-23T13:09:34;11.10;99.90
14670;DHT22;7423;48.722;9.350;2024-02-23T13:12:03;11.10;99.90
14670;DHT22;7423;48.722;9.350;2024-02-23T13:14:30;11.20;99.90
14670;DHT22;7423;48.722;9.350;2024-02-23T13:16:58;11.00;99.90
14670;DHT22;7423;48.722;9.350;2024-02-23T13:19:24;11.00;99.90
14670;DHT22;7423;48.722;9.350;2024-02-23T13:21:51;11.10;99.90
14670;DHT22;7423;48.722;9.350;2024-02-23T13:24:19;11.20;99.90
14670;DHT22;7423;48.722;9.350;2024-02-23T13:26:47;11.20;99.90
14670;DHT22;7423;48.722;9.350;2024-02-23T13:29:14;11.20;99.90
14670;DHT22;7423;48.722;9.350;2024-02-23T13:31:41;11.40;99.90
14670;DHT22;7423;48.722;9.350;2024-02-23T13:34:08;11.40;99.90
14670;DHT22;7423;48.722;9.350;2024-02-23T13:36:36;11.50;99.90
14670;DHT22;7423;48.722;9.350;2024-02-23T13:39:03;11.60;99.90
14670;DHT22;7423;48.722;9.350;2024-02-23T13:41:30;11.70;99.90
14670;DHT22;7423;48.722;9.350;2024-02-23T13:43:57;11.70;99.90
14670;DHT22;7423;48.722;9.350;2024-02-23T13:46:24;11.90;99.90
14670;DHT22;7423;48.722;9.350;2024-02-23T13:49:03;11.90;99.90
14670;DHT22;7423;48.722;9.350;2024-02-23T13:51:32;12.00;99.90
14670;DHT22;7423;48.722;9.350;2024-02-23T13:54:00;11.90;99.90
14670;DHT22;7423;48.722;9.350;2024-02-23T13:56:27;11.80;99.90
14670;DHT22;7423;48.722;9.350;2024-02-23T13:58:54;11.70;99.90
14670;DHT22;7423;48.722;9.350;2024-02-23T14:01:21;11.70;99.90
14670;DHT22;7423;48.722;9.350;2024-02-23T14:03:48;11.70;99.90
14670;DHT22;7423;48.722;9.350;2024-02-23T14:06:15;11.80;99.90
14670;DHT22;7423;48.722;9.350;2024-02-23T14:08:42;11.80;99.90
14670;DHT22;7423;48.722;9.350;2024-02-23T14:11:11;11.70;99.90
14670;DHT22;7423;48.722;9.350;2024-02-23T14:13:38;11.70;99.90
14670;DHT22;7423;48.722;9.350;2024-02-23T14:16:05;11.50;99.90
14670;DHT22;7423;48.722;9.350;2024-02-23T14:18:33;11.60;99.90
14670;DHT22;7423;48.722;9.350;2024-02-23T14:21:04;11.70;99.90
14670;DHT22;7423;48.722;9.350;2024-02-23T14:23:31;11.60;99.90
14670;DHT22;7423;48.722;9.350;2024-02-23T14:25:59;11.60;99.90
14670;DHT22;7423;48.722;9.350;2024-02-23T14:28:26;13.70;99.90
14670;DHT22;7423;48.722;9.350;2024-02-23T14:30:53;11.70;99.90
14670;DHT22;7423;48.722;9.350;2024-02-23T14:33:21;11.70;99.90
14670;DHT22;7423;48.722;9.350;2024-02-23T14:35:48;11.80;99.90
14670;DHT22;7423;48.722;9.350;2024-02-23T14:38:17;11.90;99.90
14670;DHT22;7423;48.722;9.350;2024-02-23T14:40:44;11.90;99.90
14670;DHT22;7423;48.722;9.350;2024-02-23T14:43:11;11.90;99.90
14670;DHT22;7423;48.722;9.350;2024-02-23T14:45:38;11.90;99.90
14670;DHT22;7423;48.722;9.350;2024-02-23T14:48:05;12.00;99.90
14670;DHT22;7423;48.722;9.350;2024-02-23T14:50:33;12.00;99.90
14670;DHT22;7423;48.722;9.350;2024-02-23T14:53:00;12.10;99.90
14670;DHT22;7423;48.722;9.350;2024-02-23T14:55:27;12.10;99.90
14670;DHT22;7423;48.722;9.350;2024-02-23T14:57:54;12.20;99.90
14670;DHT22;7423;48.722;9.350;2024-02-23T15:00:21;12.20;99.90
14670;DHT22;7423;48.722;9.350;2024-02-23T15:02:48;12.30;99.90
14670;DHT22;7423;48.722;9.350;2024-02-23T15:05:15;12.30;99.90
14670;DHT22;7423;48.722;9.350;2024-02-23T15:07:44;12.30;99.90
14670;DHT22;7423;48.722;9.350;2024-02-23T15:10:11;12.20;99.90
14670;DHT22;7423;48.722;9.350;2024-02-23T15:12:38;12.00;99.80
14670;DHT22;7423;48.722;9.350;2024-02-23T15:15:05;11.90;99.80
14670;DHT22;7423;48.722;9.350;2024-02-23T15:17:33;11.90;99.90
14670;DHT22;7423;48.722;9.350;2024-02-23T15:20:01;11.80;99.90
14670;DHT22;7423;48.722;9.350;2024-02-23T15:22:29;11.80;99.90
14670;DHT22;7423;48.722;9.350;2024-02-23T15:24:56;11.90;99.90
14670;DHT22;7423;48.722;9.350;2024-02-23T15:27:26;11.90;99.90
14670;DHT22;7423;48.722;9.350;2024-02-23T15:29:53;11.90;99.90
14670;DHT22;7423;48.722;9.350;2024-02-23T15:32:20;12.00;99.90
14670;DHT22;7423;48.722;9.350;2024-02-23T15:34:47;12.00;99.90
14670;DHT22;7423;48.722;9.350;2024-02-23T15:37:14;12.10;99.90
14670;DHT22;7423;48.722;9.350;2024-02-23T15:39:41;12.20;99.90
14670;DHT22;7423;48.722;9.350;2024-02-23T15:42:09;12.20;99.90
14670;DHT22;7423;48.722;9.350;2024-02-23T15:44:36;12.20;99.90
14670;DHT22;7423;48.722;9.350;2024-02-23T15:47:03;12.20;99.90
14670;DHT22;7423;48.722;9.350;2024-02-23T15:49:30;12.20;99.90
14670;DHT22;7423;48.722;9.350;2024-02-23T15:52:17;12.20;99.90
14670;DHT22;7423;48.722;9.350;2024-02-23T15:54:44;12.20;99.90